sensor_id;sensor_type;location;lat;lon;timestamp;pressure;altitude;pressure_sealevel;temperature;humidity
55079;BME280;55187;49.496;6.010;2022-07-29T00:00:36;97292.44;;;15.57;75.01
55079;BME280;55187;49.496;6.010;2022-07-29T00:03:02;97296.03;;;15.51;75.39
55079;BME280;55187;49.496;6.010;2022-07-29T00:05:29;97302.84;;;15.47;74.96
55079;BME280;55187;49.496;6.010;2022-07-29T00:07:55;97294.84;;;15.47;75.19
55079;BME280;55187;49.496;6.010;2022-07-29T00:10:22;97291.13;;;15.48;74.97
55079;BME280;55187;49.496;6.010;2022-07-29T00:12:48;97284.09;;;15.53;74.66
55079;BME280;55187;49.496;6.010;2022-07-29T00:15:14;97286.69;;;15.42;76.10
55079;BME280;55187;49.496;6.010;2022-07-29T00:17:44;97276.34;;;15.34;76.05
55079;BME280;55187;49.496;6.010;2022-07-29T00:20:10;97285.13;;;15.34;75.16
55079;BME280;55187;49.496;6.010;2022-07-29T00:22:38;97279.13;;;15.39;74.64
55079;BME280;55187;49.496;6.010;2022-07-29T00:25:07;97276.25;;;15.40;75.60
55079;BME280;55187;49.496;6.010;2022-07-29T00:27:35;97276.63;;;15.44;74.76
55079;BME280;55187;49.496;6.010;2022-07-29T00:30:03;97275.69;;;15.50;75.45
55079;BME280;55187;49.496;6.010;2022-07-29T00:32:30;97264.78;;;15.40;75.57
55079;BME280;55187;49.496;6.010;2022-07-29T00:34:56;97271.09;;;15.27;75.74
55079;BME280;55187;49.496;6.010;2022-07-29T00:37:35;97261.63;;;15.13;76.03
55079;BME280;55187;49.496;6.010;2022-07-29T00:40:01;97260.91;;;15.05;76.51
55079;BME280;55187;49.496;6.010;2022-07-29T00:42:28;97253.66;;;14.94;77.27
55079;BME280;55187;49.496;6.010;2022-07-29T00:44:54;97251.94;;;14.81;77.79
55079;BME280;55187;49.496;6.010;2022-07-29T00:47:20;97248.03;;;14.65;78.29
55079;BME280;55187;49.496;6.010;2022-07-29T00:49:47;97239.28;;;14.58;78.24
55079;BME280;55187;49.496;6.010;2022-07-29T00:52:13;97244.03;;;14.56;77.93
55079;BME280;55187;49.496;6.010;2022-07-29T00:54:40;97243.19;;;14.56;77.85
55079;BME280;55187;49.496;6.010;2022-07-29T00:57:07;97241.13;;;14.58;78.19
55079;BME280;55187;49.496;6.010;2022-07-29T00:59:36;97247.88;;;14.60;76.91
55079;BME280;55187;49.496;6.010;2022-07-29T01:02:03;97248.69;;;14.61;77.04
55079;BME280;55187;49.496;6.010;2022-07-29T01:04:30;97247.16;;;14.46;77.39
55079;BME280;55187;49.496;6.010;2022-07-29T01:06:57;97241.28;;;14.38;78.31
55079;BME280;55187;49.496;6.010;2022-07-29T01:09:23;97236.25;;;14.30;78.41
55079;BME280;55187;49.496;6.010;2022-07-29T01:11:50;97235.19;;;14.12;79.08
55079;BME280;55187;49.496;6.010;2022-07-29T01:14:18;97240.56;;;14.05;79.10
55079;BME280;55187;49.496;6.010;2022-07-29T01:19:50;97236.22;;;13.86;80.65
55079;BME280;55187;49.496;6.010;2022-07-29T01:22:40;97240.50;;;13.87;80.20
55079;BME280;55187;49.496;6.010;2022-07-29T01:30:58;97233.13;;;13.89;79.23
55079;BME280;55187;49.496;6.010;2022-07-29T01:33:27;97238.44;;;13.89;79.41
55079;BME280;55187;49.496;6.010;2022-07-29T01:35:58;97229.69;;;13.82;79.41
55079;BME280;55187;49.496;6.010;2022-07-29T01:38:27;97237.13;;;13.73;79.80
55079;BME280;55187;49.496;6.010;2022-07-29T01:41:05;97244.13;;;13.68;80.04
55079;BME280;55187;49.496;6.010;2022-07-29T01:43:42;97243.16;;;13.62;80.69
55079;BME280;55187;49.496;6.010;2022-07-29T01:46:14;97242.13;;;13.63;80.57
55079;BME280;55187;49.496;6.010;2022-07-29T01:48:47;97244.00;;;13.56;80.83
55079;BME280;55187;49.496;6.010;2022-07-29T01:51:21;97234.63;;;13.53;81.06
55079;BME280;55187;49.496;6.010;2022-07-29T01:54:07;97237.00;;;13.61;80.63
55079;BME280;55187;49.496;6.010;2022-07-29T01:56:35;97233.00;;;13.77;80.09
55079;BME280;55187;49.496;6.010;2022-07-29T01:59:04;97228.25;;;13.86;79.46
55079;BME280;55187;49.496;6.010;2022-07-29T02:01:33;97231.66;;;13.93;80.21
55079;BME280;55187;49.496;6.010;2022-07-29T02:04:03;97226.78;;;13.90;80.36
55079;BME280;55187;49.496;6.010;2022-07-29T02:06:33;97229.50;;;13.83;80.82
55079;BME280;55187;49.496;6.010;2022-07-29T02:09:02;97231.34;;;13.83;80.88
55079;BME280;55187;49.496;6.010;2022-07-29T02:11:31;97233.00;;;13.77;80.44
55079;BME280;55187;49.496;6.010;2022-07-29T02:14:00;97229.84;;;13.87;80.10
55079;BME280;55187;49.496;6.010;2022-07-29T02:16:28;97239.31;;;13.83;80.23
55079;BME280;55187;49.496;6.010;2022-07-29T02:18:57;97230.78;;;13.74;80.83
55079;BME280;55187;49.496;6.010;2022-07-29T02:21:27;97231.59;;;13.75;80.54
55079;BME280;55187;49.496;6.010;2022-07-29T02:23:58;97239.41;;;13.70;80.40
55079;BME280;55187;49.496;6.010;2022-07-29T02:26:27;97242.50;;;13.67;81.11
55079;BME280;55187;49.496;6.010;2022-07-29T02:28:56;97238.69;;;13.56;81.13
55079;BME280;55187;49.496;6.010;2022-07-29T02:31:26;97242.97;;;13.57;81.14
55079;BME280;55187;49.496;6.010;2022-07-29T02:33:55;97240.75;;;13.54;81.51
55079;BME280;55187;49.496;6.010;2022-07-29T02:36:23;97238.41;;;13.39;81.91
55079;BME280;55187;49.496;6.010;2022-07-29T02:38:51;97240.84;;;13.34;81.98
55079;BME280;55187;49.496;6.010;2022-07-29T02:41:33;97241.50;;;13.22;82.42
55079;BME280;55187;49.496;6.010;2022-07-29T02:44:10;97238.66;;;13.17;82.53
55079;BME280;55187;49.496;6.010;2022-07-29T02:46:42;97241.56;;;13.09;82.88
55079;BME280;55187;49.496;6.010;2022-07-29T02:49:16;97235.66;;;13.07;83.31
55079;BME280;55187;49.496;6.010;2022-07-29T02:51:49;97238.38;;;12.94;84.38
55079;BME280;55187;49.496;6.010;2022-07-29T02:54:29;97235.13;;;12.85;84.46
55079;BME280;55187;49.496;6.010;2022-07-29T02:57:01;97248.81;;;12.82;84.77
55079;BME280;55187;49.496;6.010;2022-07-29T02:59:33;97243.09;;;12.85;84.99
55079;BME280;55187;49.496;6.010;2022-07-29T03:02:02;97238.25;;;12.69;85.38
55079;BME280;55187;49.496;6.010;2022-07-29T03:04:32;97245.84;;;12.58;86.04
55079;BME280;55187;49.496;6.010;2022-07-29T03:07:00;97236.03;;;12.59;86.40
55079;BME280;55187;49.496;6.010;2022-07-29T03:09:29;97233.38;;;12.52;87.31
55079;BME280;55187;49.496;6.010;2022-07-29T03:11:56;97239.91;;;12.56;87.23
55079;BME280;55187;49.496;6.010;2022-07-29T03:14:23;97242.97;;;12.53;87.55
55079;BME280;55187;49.496;6.010;2022-07-29T03:16:50;97230.94;;;12.51;87.67
55079;BME280;55187;49.496;6.010;2022-07-29T03:19:18;97237.47;;;12.55;87.30
55079;BME280;55187;49.496;6.010;2022-07-29T03:21:45;97241.78;;;12.49;87.43
55079;BME280;55187;49.496;6.010;2022-07-29T03:24:25;97237.66;;;12.47;87.23
55079;BME280;55187;49.496;6.010;2022-07-29T03:26:51;97242.19;;;12.39;87.38
55079;BME280;55187;49.496;6.010;2022-07-29T03:29:18;97233.81;;;12.43;87.09
55079;BME280;55187;49.496;6.010;2022-07-29T03:31:44;97256.91;;;12.35;87.55
55079;BME280;55187;49.496;6.010;2022-07-29T03:34:10;97242.19;;;12.33;87.86
55079;BME280;55187;49.496;6.010;2022-07-29T03:36:37;97240.38;;;12.40;87.31
55079;BME280;55187;49.496;6.010;2022-07-29T03:39:03;97239.31;;;12.48;87.14
55079;BME280;55187;49.496;6.010;2022-07-29T03:41:31;97240.31;;;12.47;87.17
55079;BME280;55187;49.496;6.010;2022-07-29T03:43:59;97237.63;;;12.67;85.87
55079;BME280;55187;49.496;6.010;2022-07-29T03:46:31;97235.31;;;12.84;84.87
55079;BME280;55187;49.496;6.010;2022-07-29T03:49:04;97242.13;;;12.66;85.46
55079;BME280;55187;49.496;6.010;2022-07-29T03:51:31;97236.84;;;12.46;86.20
55079;BME280;55187;49.496;6.010;2022-07-29T03:53:58;97245.06;;;12.38;86.60
55079;BME280;55187;49.496;6.010;2022-07-29T03:56:24;97241.97;;;12.41;86.67
55079;BME280;55187;49.496;6.010;2022-07-29T03:58:52;97244.66;;;12.28;87.87
55079;BME280;55187;49.496;6.010;2022-07-29T04:01:20;97248.16;;;12.22;88.20
55079;BME280;55187;49.496;6.010;2022-07-29T04:03:47;97252.84;;;12.20;88.19
55079;BME280;55187;49.496;6.010;2022-07-29T04:06:13;97251.59;;;12.22;88.03
55079;BME280;55187;49.496;6.010;2022-07-29T04:08:40;97253.44;;;12.15;88.59
55079;BME280;55187;49.496;6.010;2022-07-29T04:11:06;97254.06;;;12.17;88.79
55079;BME280;55187;49.496;6.010;2022-07-29T04:13:33;97244.88;;;12.20;88.56
55079;BME280;55187;49.496;6.010;2022-07-29T04:15:59;97253.44;;;12.22;88.71
55079;BME280;55187;49.496;6.010;2022-07-29T04:18:26;97254.66;;;12.26;88.39
55079;BME280;55187;49.496;6.010;2022-07-29T04:20:52;97253.84;;;12.32;88.38
55079;BME280;55187;49.496;6.010;2022-07-29T04:23:19;97253.19;;;12.50;87.44
55079;BME280;55187;49.496;6.010;2022-07-29T04:25:45;97249.31;;;12.52;87.51
55079;BME280;55187;49.496;6.010;2022-07-29T04:28:11;97257.28;;;12.52;88.05
55079;BME280;55187;49.496;6.010;2022-07-29T04:30:38;97265.06;;;12.47;89.06
55079;BME280;55187;49.496;6.010;2022-07-29T04:33:06;97264.03;;;12.42;89.59
55079;BME280;55187;49.496;6.010;2022-07-29T04:35:35;97266.88;;;12.47;89.66
55079;BME280;55187;49.496;6.010;2022-07-29T04:38:01;97263.81;;;12.50;90.13
55079;BME280;55187;49.496;6.010;2022-07-29T04:40:28;97267.69;;;12.54;90.20
55079;BME280;55187;49.496;6.010;2022-07-29T04:42:55;97269.72;;;12.58;90.52
55079;BME280;55187;49.496;6.010;2022-07-29T04:45:21;97263.75;;;12.70;90.33
55079;BME280;55187;49.496;6.010;2022-07-29T04:47:48;97271.50;;;12.78;90.18
55079;BME280;55187;49.496;6.010;2022-07-29T04:50:14;97270.06;;;12.89;90.19
55079;BME280;55187;49.496;6.010;2022-07-29T04:52:41;97275.53;;;13.00;89.97
55079;BME280;55187;49.496;6.010;2022-07-29T04:55:08;97268.78;;;13.05;89.86
55079;BME280;55187;49.496;6.010;2022-07-29T04:57:34;97271.19;;;13.13;89.76
55079;BME280;55187;49.496;6.010;2022-07-29T05:00:01;97275.28;;;13.09;89.89
55079;BME280;55187;49.496;6.010;2022-07-29T05:02:27;97273.19;;;13.17;89.92
55079;BME280;55187;49.496;6.010;2022-07-29T05:04:54;97268.50;;;13.19;90.50
55079;BME280;55187;49.496;6.010;2022-07-29T05:07:20;97271.72;;;13.35;89.82
55079;BME280;55187;49.496;6.010;2022-07-29T05:09:46;97273.69;;;13.53;88.83
55079;BME280;55187;49.496;6.010;2022-07-29T05:12:13;97278.31;;;13.64;88.84
55079;BME280;55187;49.496;6.010;2022-07-29T05:14:39;97284.19;;;13.73;87.83
55079;BME280;55187;49.496;6.010;2022-07-29T05:17:05;97282.28;;;13.80;88.03
55079;BME280;55187;49.496;6.010;2022-07-29T05:19:31;97280.84;;;13.84;87.72
55079;BME280;55187;49.496;6.010;2022-07-29T05:21:58;97283.03;;;13.94;87.52
55079;BME280;55187;49.496;6.010;2022-07-29T05:24:26;97289.09;;;14.01;87.47
55079;BME280;55187;49.496;6.010;2022-07-29T05:26:52;97291.06;;;14.12;86.08
55079;BME280;55187;49.496;6.010;2022-07-29T05:29:18;97284.38;;;14.03;87.53
55079;BME280;55187;49.496;6.010;2022-07-29T05:31:45;97291.47;;;14.16;85.76
55079;BME280;55187;49.496;6.010;2022-07-29T05:34:11;97288.63;;;14.11;86.94
55079;BME280;55187;49.496;6.010;2022-07-29T05:36:37;97288.16;;;14.20;86.06
55079;BME280;55187;49.496;6.010;2022-07-29T05:39:03;97293.78;;;14.31;84.90
55079;BME280;55187;49.496;6.010;2022-07-29T05:41:33;97290.47;;;14.35;85.21
55079;BME280;55187;49.496;6.010;2022-07-29T05:43:59;97298.09;;;14.57;83.50
55079;BME280;55187;49.496;6.010;2022-07-29T05:46:26;97297.69;;;14.53;84.35
55079;BME280;55187;49.496;6.010;2022-07-29T05:48:52;97292.88;;;14.68;83.38
55079;BME280;55187;49.496;6.010;2022-07-29T05:51:19;97294.28;;;14.71;83.50
55079;BME280;55187;49.496;6.010;2022-07-29T05:53:45;97298.56;;;14.72;83.74
55079;BME280;55187;49.496;6.010;2022-07-29T05:56:12;97289.91;;;14.95;81.30
55079;BME280;55187;49.496;6.010;2022-07-29T05:58:38;97298.50;;;15.16;80.65
55079;BME280;55187;49.496;6.010;2022-07-29T06:01:05;97295.31;;;15.25;81.29
55079;BME280;55187;49.496;6.010;2022-07-29T06:03:31;97301.88;;;15.41;77.51
55079;BME280;55187;49.496;6.010;2022-07-29T06:05:58;97299.28;;;15.53;78.49
55079;BME280;55187;49.496;6.010;2022-07-29T06:08:24;97304.41;;;15.66;79.78
55079;BME280;55187;49.496;6.010;2022-07-29T06:10:53;97306.84;;;15.68;80.21
55079;BME280;55187;49.496;6.010;2022-07-29T06:13:20;97307.47;;;16.00;78.68
55079;BME280;55187;49.496;6.010;2022-07-29T06:15:46;97305.22;;;16.63;74.80
55079;BME280;55187;49.496;6.010;2022-07-29T06:18:12;97317.97;;;18.34;69.25
55079;BME280;55187;49.496;6.010;2022-07-29T06:20:39;97317.50;;;18.54;69.75
55079;BME280;55187;49.496;6.010;2022-07-29T06:23:05;97319.06;;;19.72;61.31
55079;BME280;55187;49.496;6.010;2022-07-29T06:25:32;97321.66;;;19.23;63.17
55079;BME280;55187;49.496;6.010;2022-07-29T06:28:01;97310.31;;;18.94;65.81
55079;BME280;55187;49.496;6.010;2022-07-29T06:30:27;97312.84;;;20.95;61.88
55079;BME280;55187;49.496;6.010;2022-07-29T06:32:54;97305.91;;;23.27;56.27
55079;BME280;55187;49.496;6.010;2022-07-29T06:35:21;97315.63;;;24.61;50.88
55079;BME280;55187;49.496;6.010;2022-07-29T06:37:47;97322.69;;;25.83;46.96
55079;BME280;55187;49.496;6.010;2022-07-29T06:40:14;97318.53;;;26.09;46.75
55079;BME280;55187;49.496;6.010;2022-07-29T06:42:44;97323.72;;;26.25;46.15
55079;BME280;55187;49.496;6.010;2022-07-29T06:45:11;97318.94;;;26.35;44.01
55079;BME280;55187;49.496;6.010;2022-07-29T06:47:38;97321.91;;;24.86;46.48
55079;BME280;55187;49.496;6.010;2022-07-29T06:50:04;97322.78;;;24.47;48.74
55079;BME280;55187;49.496;6.010;2022-07-29T06:52:31;97323.88;;;25.33;47.33
55079;BME280;55187;49.496;6.010;2022-07-29T06:54:58;97329.06;;;25.73;45.65
55079;BME280;55187;49.496;6.010;2022-07-29T06:57:25;97330.00;;;25.82;45.38
55079;BME280;55187;49.496;6.010;2022-07-29T06:59:52;97324.78;;;26.43;43.41
55079;BME280;55187;49.496;6.010;2022-07-29T07:02:18;97325.75;;;28.09;41.40
55079;BME280;55187;49.496;6.010;2022-07-29T07:04:44;97331.91;;;28.01;42.35
55079;BME280;55187;49.496;6.010;2022-07-29T07:07:11;97334.06;;;27.49;41.69
55079;BME280;55187;49.496;6.010;2022-07-29T07:09:37;97335.16;;;27.61;42.21
55079;BME280;55187;49.496;6.010;2022-07-29T07:12:04;97344.22;;;26.69;43.36
55079;BME280;55187;49.496;6.010;2022-07-29T07:14:31;97336.38;;;27.28;41.77
55079;BME280;55187;49.496;6.010;2022-07-29T07:16:58;97337.75;;;26.32;43.25
55079;BME280;55187;49.496;6.010;2022-07-29T07:19:26;97338.03;;;26.30;44.61
55079;BME280;55187;49.496;6.010;2022-07-29T07:21:53;97342.13;;;27.40;42.57
55079;BME280;55187;49.496;6.010;2022-07-29T07:24:19;97344.72;;;27.73;40.62
55079;BME280;55187;49.496;6.010;2022-07-29T07:26:46;97352.41;;;28.43;40.17
55079;BME280;55187;49.496;6.010;2022-07-29T07:29:32;97349.97;;;28.19;41.00
55079;BME280;55187;49.496;6.010;2022-07-29T07:31:58;97360.19;;;28.14;40.97
55079;BME280;55187;49.496;6.010;2022-07-29T07:34:25;97355.91;;;30.18;38.17
55079;BME280;55187;49.496;6.010;2022-07-29T07:36:51;97359.88;;;29.37;38.75
55079;BME280;55187;49.496;6.010;2022-07-29T07:39:17;97370.00;;;28.82;39.85
55079;BME280;55187;49.496;6.010;2022-07-29T07:41:44;97360.44;;;28.62;40.02
55079;BME280;55187;49.496;6.010;2022-07-29T07:44:10;97365.97;;;27.71;40.27
55079;BME280;55187;49.496;6.010;2022-07-29T07:46:36;97358.50;;;28.63;38.75
55079;BME280;55187;49.496;6.010;2022-07-29T07:49:03;97363.94;;;30.66;35.66
55079;BME280;55187;49.496;6.010;2022-07-29T07:51:29;97375.44;;;28.82;38.62
55079;BME280;55187;49.496;6.010;2022-07-29T07:53:59;97371.50;;;30.52;36.47
55079;BME280;55187;49.496;6.010;2022-07-29T07:56:30;97361.72;;;29.19;38.80
55079;BME280;55187;49.496;6.010;2022-07-29T07:58:56;97368.91;;;28.24;39.63
55079;BME280;55187;49.496;6.010;2022-07-29T08:01:23;97370.66;;;28.43;40.17
55079;BME280;55187;49.496;6.010;2022-07-29T08:03:49;97373.41;;;28.88;38.39
55079;BME280;55187;49.496;6.010;2022-07-29T08:06:16;97371.59;;;27.88;41.05
55079;BME280;55187;49.496;6.010;2022-07-29T08:08:42;97378.25;;;27.96;41.14
55079;BME280;55187;49.496;6.010;2022-07-29T08:11:09;97378.78;;;27.84;41.23
55079;BME280;55187;49.496;6.010;2022-07-29T08:13:36;97376.97;;;26.58;42.85
55079;BME280;55187;49.496;6.010;2022-07-29T08:16:03;97387.25;;;25.32;45.87
55079;BME280;55187;49.496;6.010;2022-07-29T08:18:42;97373.81;;;26.32;44.58
55079;BME280;55187;49.496;6.010;2022-07-29T08:21:10;97375.13;;;27.19;43.54
55079;BME280;55187;49.496;6.010;2022-07-29T08:23:36;97376.69;;;26.60;43.38
55079;BME280;55187;49.496;6.010;2022-07-29T08:26:06;97375.81;;;25.84;44.31
55079;BME280;55187;49.496;6.010;2022-07-29T08:28:37;97383.50;;;24.99;46.65
55079;BME280;55187;49.496;6.010;2022-07-29T08:31:04;97374.25;;;26.40;44.65
55079;BME280;55187;49.496;6.010;2022-07-29T08:33:30;97384.72;;;27.86;42.29
55079;BME280;55187;49.496;6.010;2022-07-29T08:35:59;97388.63;;;28.66;39.41
55079;BME280;55187;49.496;6.010;2022-07-29T08:38:25;97382.69;;;27.50;42.57
55079;BME280;55187;49.496;6.010;2022-07-29T08:40:55;97377.56;;;28.85;40.33
55079;BME280;55187;49.496;6.010;2022-07-29T08:43:22;97389.34;;;29.66;38.42
55079;BME280;55187;49.496;6.010;2022-07-29T08:45:50;97376.59;;;29.93;37.69
55079;BME280;55187;49.496;6.010;2022-07-29T08:48:20;97389.13;;;31.07;36.36
55079;BME280;55187;49.496;6.010;2022-07-29T08:50:48;97385.16;;;29.20;38.47
55079;BME280;55187;49.496;6.010;2022-07-29T08:53:17;97377.19;;;31.20;35.15
55079;BME280;55187;49.496;6.010;2022-07-29T08:55:49;97378.38;;;29.48;38.65
55079;BME280;55187;49.496;6.010;2022-07-29T08:58:16;97380.47;;;30.09;36.22
55079;BME280;55187;49.496;6.010;2022-07-29T09:00:46;97382.88;;;28.68;38.30
55079;BME280;55187;49.496;6.010;2022-07-29T09:03:19;97386.66;;;29.35;37.10
55079;BME280;55187;49.496;6.010;2022-07-29T09:05:46;97383.03;;;29.48;36.93
55079;BME280;55187;49.496;6.010;2022-07-29T09:08:15;97385.63;;;30.19;35.80
55079;BME280;55187;49.496;6.010;2022-07-29T09:10:42;97381.72;;;28.60;38.43
55079;BME280;55187;49.496;6.010;2022-07-29T09:13:09;97385.22;;;29.68;37.10
55079;BME280;55187;49.496;6.010;2022-07-29T09:15:36;97383.88;;;30.41;35.75
55079;BME280;55187;49.496;6.010;2022-07-29T09:18:02;97375.94;;;29.87;36.32
55079;BME280;55187;49.496;6.010;2022-07-29T09:20:28;97382.78;;;30.42;36.27
55079;BME280;55187;49.496;6.010;2022-07-29T09:23:15;97371.28;;;31.01;37.52
55079;BME280;55187;49.496;6.010;2022-07-29T09:25:41;97374.28;;;31.25;33.95
55079;BME280;55187;49.496;6.010;2022-07-29T09:28:13;97386.97;;;29.73;35.95
55079;BME280;55187;49.496;6.010;2022-07-29T09:30:54;97376.81;;;30.31;36.98
55079;BME280;55187;49.496;6.010;2022-07-29T09:33:23;97375.16;;;29.86;35.91
55079;BME280;55187;49.496;6.010;2022-07-29T09:36:05;97377.13;;;28.70;38.26
55079;BME280;55187;49.496;6.010;2022-07-29T09:38:33;97386.03;;;27.33;41.16
55079;BME280;55187;49.496;6.010;2022-07-29T09:41:02;97372.16;;;27.02;41.47
55079;BME280;55187;49.496;6.010;2022-07-29T09:43:29;97378.66;;;29.38;38.20
55079;BME280;55187;49.496;6.010;2022-07-29T09:46:12;97383.38;;;30.13;36.40
55079;BME280;55187;49.496;6.010;2022-07-29T09:48:39;97379.53;;;28.71;37.40
55079;BME280;55187;49.496;6.010;2022-07-29T09:51:19;97388.53;;;28.72;39.87
55079;BME280;55187;49.496;6.010;2022-07-29T09:53:47;97381.88;;;28.64;39.51
55079;BME280;55187;49.496;6.010;2022-07-29T09:56:13;97376.06;;;27.43;40.20
55079;BME280;55187;49.496;6.010;2022-07-29T09:58:41;97380.00;;;27.04;40.36
55079;BME280;55187;49.496;6.010;2022-07-29T10:01:07;97379.97;;;27.92;39.46
55079;BME280;55187;49.496;6.010;2022-07-29T10:03:50;97381.94;;;27.17;39.86
55079;BME280;55187;49.496;6.010;2022-07-29T10:06:18;97386.25;;;27.04;42.27
55079;BME280;55187;49.496;6.010;2022-07-29T10:08:44;97391.66;;;27.37;41.25
55079;BME280;55187;49.496;6.010;2022-07-29T10:11:16;97387.25;;;26.94;42.79
55079;BME280;55187;49.496;6.010;2022-07-29T10:13:44;97385.16;;;26.53;41.24
55079;BME280;55187;49.496;6.010;2022-07-29T10:16:12;97393.47;;;28.70;38.32
55079;BME280;55187;49.496;6.010;2022-07-29T10:18:40;97381.63;;;30.25;36.17
55079;BME280;55187;49.496;6.010;2022-07-29T10:21:07;97387.69;;;29.96;35.91
55079;BME280;55187;49.496;6.010;2022-07-29T10:23:34;97393.41;;;28.61;38.82
55079;BME280;55187;49.496;6.010;2022-07-29T10:26:02;97380.94;;;27.13;39.83
55079;BME280;55187;49.496;6.010;2022-07-29T10:28:31;97382.53;;;26.48;40.92
55079;BME280;55187;49.496;6.010;2022-07-29T10:31:01;97386.50;;;26.89;40.50
55079;BME280;55187;49.496;6.010;2022-07-29T10:36:32;97387.78;;;27.10;41.03
55079;BME280;55187;49.496;6.010;2022-07-29T10:39:17;97389.97;;;27.08;40.88
55079;BME280;55187;49.496;6.010;2022-07-29T10:44:35;97397.50;;;26.65;40.74
55079;BME280;55187;49.496;6.010;2022-07-29T10:47:06;97384.44;;;27.13;40.11
55079;BME280;55187;49.496;6.010;2022-07-29T10:49:33;97392.50;;;27.18;40.46
55079;BME280;55187;49.496;6.010;2022-07-29T10:52:05;97394.38;;;27.51;40.31
55079;BME280;55187;49.496;6.010;2022-07-29T10:54:46;97391.84;;;28.10;39.83
55079;BME280;55187;49.496;6.010;2022-07-29T10:57:26;97396.91;;;27.61;39.12
55079;BME280;55187;49.496;6.010;2022-07-29T11:02:59;97400.31;;;27.94;39.77
55079;BME280;55187;49.496;6.010;2022-07-29T11:05:26;97391.94;;;27.22;40.78
55079;BME280;55187;49.496;6.010;2022-07-29T11:08:17;97387.84;;;27.66;39.89
55079;BME280;55187;49.496;6.010;2022-07-29T11:10:47;97393.63;;;28.14;40.32
55079;BME280;55187;49.496;6.010;2022-07-29T11:16:04;97399.84;;;29.81;36.78
55079;BME280;55187;49.496;6.010;2022-07-29T11:18:32;97391.53;;;28.48;37.83
55079;BME280;55187;49.496;6.010;2022-07-29T11:20:59;97393.88;;;27.49;40.25
55079;BME280;55187;49.496;6.010;2022-07-29T11:23:29;97392.25;;;27.20;41.43
55079;BME280;55187;49.496;6.010;2022-07-29T11:26:19;97382.81;;;27.45;40.74
55079;BME280;55187;49.496;6.010;2022-07-29T11:29:06;97382.72;;;26.71;42.18
55079;BME280;55187;49.496;6.010;2022-07-29T11:31:45;97387.44;;;26.46;42.95
55079;BME280;55187;49.496;6.010;2022-07-29T11:37:14;97386.47;;;25.99;44.27
55079;BME280;55187;49.496;6.010;2022-07-29T11:40:09;97381.13;;;26.13;42.31
55079;BME280;55187;49.496;6.010;2022-07-29T11:42:38;97382.88;;;26.04;44.73
55079;BME280;55187;49.496;6.010;2022-07-29T11:47:49;97386.44;;;25.32;44.35
55079;BME280;55187;49.496;6.010;2022-07-29T11:50:33;97378.53;;;25.60;44.42
55079;BME280;55187;49.496;6.010;2022-07-29T11:53:02;97375.50;;;25.66;46.98
55079;BME280;55187;49.496;6.010;2022-07-29T11:55:29;97379.91;;;26.05;44.50
55079;BME280;55187;49.496;6.010;2022-07-29T11:57:59;97375.56;;;25.61;45.25
55079;BME280;55187;49.496;6.010;2022-07-29T12:00:29;97372.75;;;25.90;43.79
55079;BME280;55187;49.496;6.010;2022-07-29T12:02:57;97375.63;;;25.99;43.44
55079;BME280;55187;49.496;6.010;2022-07-29T12:05:33;97372.41;;;26.35;43.58
55079;BME280;55187;49.496;6.010;2022-07-29T12:08:10;97368.50;;;25.60;44.28
55079;BME280;55187;49.496;6.010;2022-07-29T12:10:37;97364.50;;;25.77;44.44
55079;BME280;55187;49.496;6.010;2022-07-29T12:13:03;97366.19;;;26.34;44.51
55079;BME280;55187;49.496;6.010;2022-07-29T12:15:30;97369.75;;;26.68;42.58
55079;BME280;55187;49.496;6.010;2022-07-29T12:17:57;97372.75;;;26.66;42.34
55079;BME280;55187;49.496;6.010;2022-07-29T12:20:28;97378.22;;;26.28;42.40
55079;BME280;55187;49.496;6.010;2022-07-29T12:22:55;97372.13;;;25.99;42.84
55079;BME280;55187;49.496;6.010;2022-07-29T12:25:23;97369.63;;;26.40;43.15
55079;BME280;55187;49.496;6.010;2022-07-29T12:27:59;97378.78;;;26.06;43.27
55079;BME280;55187;49.496;6.010;2022-07-29T12:30:35;97367.56;;;25.94;42.80
55079;BME280;55187;49.496;6.010;2022-07-29T12:33:19;97380.63;;;26.11;42.78
55079;BME280;55187;49.496;6.010;2022-07-29T12:35:49;97364.84;;;26.70;41.94
55079;BME280;55187;49.496;6.010;2022-07-29T12:38:17;97363.25;;;26.69;41.69
55079;BME280;55187;49.496;6.010;2022-07-29T12:40:45;97360.97;;;26.19;43.36
55079;BME280;55187;49.496;6.010;2022-07-29T12:43:17;97362.47;;;26.11;44.14
55079;BME280;55187;49.496;6.010;2022-07-29T12:45:46;97368.25;;;26.05;42.97
55079;BME280;55187;49.496;6.010;2022-07-29T12:48:13;97369.84;;;26.06;44.81
55079;BME280;55187;49.496;6.010;2022-07-29T12:50:53;97362.84;;;25.81;44.84
55079;BME280;55187;49.496;6.010;2022-07-29T12:53:20;97362.19;;;25.46;44.55
55079;BME280;55187;49.496;6.010;2022-07-29T12:55:49;97371.00;;;25.57;44.33
55079;BME280;55187;49.496;6.010;2022-07-29T12:58:30;97371.09;;;25.70;44.68
55079;BME280;55187;49.496;6.010;2022-07-29T13:01:09;97364.03;;;25.74;45.14
55079;BME280;55187;49.496;6.010;2022-07-29T13:03:53;97362.03;;;25.80;44.20
55079;BME280;55187;49.496;6.010;2022-07-29T13:06:44;97360.31;;;26.46;44.18
55079;BME280;55187;49.496;6.010;2022-07-29T13:09:20;97369.84;;;26.25;44.45
55079;BME280;55187;49.496;6.010;2022-07-29T13:11:52;97376.47;;;25.75;42.79
55079;BME280;55187;49.496;6.010;2022-07-29T13:14:32;97378.03;;;25.82;45.58
55079;BME280;55187;49.496;6.010;2022-07-29T13:17:08;97379.19;;;26.19;43.77
55079;BME280;55187;49.496;6.010;2022-07-29T13:19:40;97380.53;;;25.97;41.89
55079;BME280;55187;49.496;6.010;2022-07-29T13:22:09;97370.13;;;26.42;41.37
55079;BME280;55187;49.496;6.010;2022-07-29T13:24:53;97371.06;;;27.17;40.86
55079;BME280;55187;49.496;6.010;2022-07-29T13:27:22;97374.91;;;26.69;40.90
55079;BME280;55187;49.496;6.010;2022-07-29T13:29:50;97371.38;;;26.69;43.04
55079;BME280;55187;49.496;6.010;2022-07-29T13:32:19;97375.25;;;26.95;40.36
55079;BME280;55187;49.496;6.010;2022-07-29T13:34:46;97375.19;;;26.49;41.79
55079;BME280;55187;49.496;6.010;2022-07-29T13:37:13;97384.22;;;26.63;41.89